Latest Weather Observations for Jabiru

IDD60801

Issued at 8:01 pm CST Friday 4 September 2015 (issued every 30 minutes, with the page automatically refreshed every 10 minutes)

About weather observations | Map of weather stations | Latest weather observations for NT | Other Formats
Station Details ID: 014198 Name: JABIRU AIRPORT Lat: -12.66 Lon: 132.89 Height: 26.5 m
Data from the previous 72 hours. | See also: Recent months at Jabiru
Date/Time
CST
Temp
°C
App
Temp
°C
Dew
Point
Rel
Hum
%
Delta-T
°C
Wind Press
QNH
hPa
Press
MSL
hPa
Rain
since 9 am
mm
Dir
 
Spd
km/h
Gust
km/h
Spd
kts
Gust
kts
04/08:00pm 30.0 30.3 18.8 51 7.2 NW 15 22 8 12 1014.5 1014.3 0.0
04/07:30pm 32.6 31.5 10.0 25 12.9 ESE 6 6 3 3 1013.7 1013.5 0.0
04/07:00pm 33.6 31.8 9.6 23 13.7 E 9 11 5 6 1013.2 1013.0 0.0
04/06:30pm 34.7 32.6 8.4 20 14.8 ESE 9 15 5 8 1012.8 1012.6 0.0
04/06:00pm 35.7 32.9 8.5 19 15.4 SE 13 24 7 13 1012.5 1012.3 0.0
04/05:30pm 36.5 33.7 8.4 18 16.0 E 13 24 7 13 1012.3 1012.1 0.0
04/05:00pm 36.6 33.8 8.4 18 16.0 ESE 13 20 7 11 1012.0 1011.8 0.0
04/04:30pm 36.6 33.2 9.2 19 15.8 ESE 17 37 9 20 1011.8 1011.6 0.0
04/04:00pm 36.9 34.2 10.2 20 15.6 E 15 24 8 13 1011.9 1011.7 0.0
04/03:30pm 36.5 33.5 10.6 21 15.2 E 17 28 9 15 1012.2 1012.0 0.0
04/03:00pm 36.2 33.3 11.1 22 14.8 NNE 17 33 9 18 1012.6 1012.4 0.0
04/02:30pm 35.8 32.4 11.4 23 14.5 ESE 20 33 11 18 1013.1 1012.9 0.0
04/02:00pm 35.5 33.4 12.5 25 13.8 NNE 15 30 8 16 1013.5 1013.3 0.0
04/01:30pm 35.4 32.3 13.5 26 13.4 ENE 22 39 12 21 1014.2 1014.0 0.0
04/01:00pm 34.8 33.6 14.1 28 12.7 ESE 13 24 7 13 1014.8 1014.6 0.0
04/12:30pm 34.0 31.7 14.0 30 12.2 ENE 19 30 10 16 1015.4 1015.2 0.0
04/12:00pm 33.3 32.1 16.2 36 10.8 E 17 32 9 17 1016.2 1016.0 0.0
04/11:30am 32.6 31.8 17.2 39 9.8 ENE 17 41 9 22 1016.8 1016.6 0.0
04/11:00am 31.7 32.8 17.9 43 8.9 ESE 9 22 5 12 1017.3 1017.1 0.0
04/10:30am 29.9 31.4 19.0 52 7.1 S 9 13 5 7 1017.6 1017.4 0.0
04/10:00am 29.0 30.7 19.3 55 6.3 SE 9 13 5 7 1017.9 1017.7 0.0
04/09:30am 28.2 30.6 20.0 61 5.4 SSE 7 15 4 8 1018.1 1017.9 0.0
04/09:00am 26.5 28.9 20.1 68 4.2 SSW 7 11 4 6 1018.0 1017.8 0.0
04/08:30am 25.5 28.2 20.7 75 3.1 SSW 7 15 4 8 1017.9 1017.7 0.0
04/08:00am 23.8 25.8 19.9 79 2.5 SSW 9 15 5 8 1017.7 1017.5 0.0
04/07:30am 22.9 24.9 19.1 79 2.4 SSW 7 11 4 6 1017.4 1017.2 0.0
04/07:00am 22.7 25.2 19.1 80 2.3 SSW 4 7 2 4 1016.9 1016.7 0.0
04/06:30am 22.7 24.7 18.7 78 2.5 SW 6 7 3 4 1016.5 1016.3 0.0
04/06:00am 23.3 25.4 19.0 77 2.7 SSW 6 9 3 5 1016.2 1016.0 0.0
04/05:30am 23.4 25.4 19.1 77 2.7 SSW 7 9 4 5 1015.9 1015.7 0.0
04/05:00am 23.3 25.0 18.6 75 3.0 SSW 7 9 4 5 1015.7 1015.5 0.0
04/04:30am 23.9 25.7 18.8 73 3.2 SSW 7 9 4 5 1015.6 1015.4 0.0
04/04:00am 24.8 28.0 19.8 74 3.2 WNW 2 6 1 3 1015.4 1015.2 0.0
04/03:30am 24.4 27.0 20.1 77 2.8 NW 6 7 3 4 1015.5 1015.3 0.0
04/03:00am 24.3 26.0 19.4 74 3.1 NW 9 11 5 6 1015.6 1015.4 0.0
04/02:30am 24.8 26.7 18.5 68 4.0 NNW 6 7 3 4 1015.8 1015.6 0.0
04/02:00am 25.5 27.5 18.7 66 4.3 N 6 7 3 4 1015.8 1015.6 0.0
04/01:30am 25.3 27.7 18.0 64 4.6 N 2 6 1 3 1016.1 1015.9 0.0
04/01:00am 25.7 26.8 17.9 62 4.9 NNE 9 11 5 6 1016.3 1016.1 0.0
04/12:30am 26.0 27.3 17.6 60 5.3 NE 7 9 4 5 1016.6 1016.4 0.0
04/12:00am 25.9 26.3 17.3 59 5.4 NE 11 13 6 7 1016.6 1016.4 0.0
 
Date/Time
CST
Temp
°C
App
Temp
°C
Dew
Point
Rel
Hum
%
Delta-T
°C
Wind Press
QNH
hPa
Press
MSL
hPa
Rain
since 9 am
mm
Dir
 
Spd
km/h
Gust
km/h
Spd
kts
Gust
kts
03/11:30pm 25.9 26.8 17.5 59 5.3 N 9 11 5 6 1016.3 1016.1 0.0
03/11:00pm 26.1 27.6 18.0 61 5.1 NNW 7 9 4 5 1016.1 1015.9 0.0
03/10:30pm 26.7 27.9 18.3 60 5.3 NNW 9 15 5 8 1016.1 1015.9 0.0
03/10:00pm 27.2 28.7 18.8 60 5.4 NNW 9 15 5 8 1015.9 1015.7 0.0
03/09:30pm 27.4 28.5 18.9 59 5.5 NNW 11 15 6 8 1015.9 1015.7 0.0
03/09:00pm 28.0 28.9 18.4 56 6.1 NNW 11 17 6 9 1015.5 1015.3 0.0
03/08:30pm 28.4 29.0 18.5 55 6.3 NW 13 20 7 11 1015.2 1015.0 0.0
03/08:00pm 29.0 28.6 18.1 51 7.0 NNW 17 22 9 12 1014.7 1014.5 0.0
03/07:30pm 29.9 29.6 18.3 49 7.5 N 17 24 9 13 1014.0 1013.8 0.0
03/07:00pm 32.0 32.8 15.9 38 10.1 NNW 6 33 3 18 1013.2 1013.0 0.0
03/06:30pm 34.2 35.3 13.6 29 12.5 CALM 0 0 0 0 1012.7 1012.5 0.0
03/06:00pm 34.9 36.1 13.7 28 13.0 CALM 0 0 0 0 1012.6 1012.4 0.0
03/05:30pm 35.6 36.6 13.1 25 13.7 CALM 0 0 0 0 1012.3 1012.1 0.0
03/05:00pm 35.9 36.8 12.8 25 14.0 CALM 0 0 0 0 1012.2 1012.0 0.0
03/04:30pm 35.5 36.3 12.5 25 13.9 CALM 0 0 0 0 1012.2 1012.0 0.0
03/04:00pm 36.4 37.0 13.2 25 14.2 N 2 24 1 13 1012.1 1011.9 0.0
03/03:30pm 35.0 36.2 13.8 28 13.0 CALM 0 0 0 0 1012.6 1012.4 0.0
03/03:00pm 35.1 35.9 13.8 27 13.1 E 2 32 1 17 1012.7 1012.5 0.0
03/02:30pm 35.1 36.3 13.8 27 13.1 CALM 0 0 0 0 1013.1 1012.9 0.0
03/02:00pm 34.6 36.2 15.0 31 12.2 CALM 0 0 0 0 1013.5 1013.3 0.0
03/01:30pm 34.0 35.8 15.4 32 11.6 CALM 0 0 0 0 1014.0 1013.8 0.0
03/01:00pm 33.2 34.8 14.8 33 11.4 CALM 0 0 0 0 1014.6 1014.4 0.0
03/12:30pm 32.8 34.5 15.3 34 10.9 CALM 0 0 0 0 1015.2 1015.0 0.0
03/12:00pm 32.4 34.7 16.7 39 9.9 CALM 0 0 0 0 1015.7 1015.5 0.0
03/11:30am 31.1 33.4 16.7 42 9.1 CALM 0 0 0 0 1016.4 1016.2 0.0
03/11:00am 31.0 33.5 17.3 43 8.7 CALM 0 0 0 0 1017.0 1016.8 0.0
03/10:30am 29.2 31.6 17.1 48 7.6 CALM 0 0 0 0 1017.3 1017.1 0.0
03/10:00am 28.7 30.8 16.3 47 7.7 CALM 0 0 0 0 1017.5 1017.3 0.0
03/09:30am 28.6 31.5 18.1 53 6.7 CALM 0 0 0 0 1017.6 1017.4 0.0
03/09:00am 26.8 30.0 18.9 62 5.1 CALM 0 0 0 0 1017.7 1017.5 0.0
03/08:30am 25.8 29.2 19.4 67 4.1 CALM 0 0 0 0 1017.5 1017.3 0.0
03/08:00am 24.2 27.5 19.1 73 3.3 CALM 0 0 0 0 1017.3 1017.1 0.0
03/07:30am 22.9 25.9 18.4 76 2.8 CALM 0 0 0 0 1016.9 1016.7 0.0
03/07:00am 21.0 23.6 17.4 80 2.2 CALM 0 7 0 4 1016.7 1016.5 0.0
03/06:30am 21.4 24.0 17.4 78 2.5 CALM 0 0 0 0 1016.2 1016.0 0.0
03/06:00am 21.1 23.5 16.9 77 2.6 CALM 0 0 0 0 1015.6 1015.4 0.0
03/05:30am 21.7 24.2 17.3 76 2.7 CALM 0 0 0 0 1015.3 1015.1 0.0
03/05:00am 21.6 23.9 16.8 74 2.9 CALM 0 0 0 0 1015.1 1014.9 0.0
03/04:30am 22.1 24.6 17.2 74 3.0 CALM 0 0 0 0 1015.1 1014.9 0.0
03/04:00am 22.4 24.9 17.3 73 3.1 CALM 0 0 0 0 1015.3 1015.1 0.0
03/03:30am 22.7 24.4 17.2 71 3.4 NW 4 6 2 3 1015.2 1015.0 0.0
03/03:00am 22.9 24.2 17.1 70 3.6 NNW 6 7 3 4 1015.3 1015.1 0.0
03/02:30am 23.3 24.5 16.8 67 4.0 NNW 6 7 3 4 1015.5 1015.3 0.0
03/02:00am 23.9 25.2 17.2 66 4.1 WNW 6 7 3 4 1015.5 1015.3 0.0
03/01:30am 24.0 25.1 17.0 65 4.3 NW 7 9 4 5 1015.5 1015.3 0.0
03/01:00am 24.1 26.2 17.1 65 4.3 N 2 7 1 4 1015.8 1015.6 0.0
03/12:30am 25.1 26.0 17.6 63 4.7 NW 9 11 5 6 1015.8 1015.6 0.0
03/12:00am 25.5 26.3 17.4 61 5.1 WNW 9 13 5 7 1015.7 1015.5 0.0
 
Date/Time
CST
Temp
°C
App
Temp
°C
Dew
Point
Rel
Hum
%
Delta-T
°C
Wind Press
QNH
hPa
Press
MSL
hPa
Rain
since 9 am
mm
Dir
 
Spd
km/h
Gust
km/h
Spd
kts
Gust
kts
02/11:30pm 25.9 26.1 16.7 57 5.7 WNW 11 15 6 8 1015.6 1015.4 0.0
02/11:00pm 26.1 26.3 15.8 53 6.3 WNW 9 13 5 7 1015.3 1015.1 0.0
02/10:30pm 26.1 26.9 16.4 55 6.0 NW 7 9 4 5 1015.1 1014.9 0.0
02/10:00pm 26.3 27.6 17.1 57 5.7 N 6 9 3 5 1015.0 1014.8 0.0
02/09:30pm 26.7 27.6 17.5 57 5.8 NNW 9 13 5 7 1014.6 1014.4 0.0
02/09:00pm 27.5 27.6 17.4 54 6.4 NNW 13 17 7 9 1014.3 1014.1 0.0
02/08:30pm 28.2 28.7 16.5 49 7.3 N 9 13 5 7 1014.0 1013.8 0.0
02/08:00pm 29.3 28.9 16.1 44 8.2 NNW 13 20 7 11 1013.3 1013.1 0.0
02/07:30pm 29.8 28.9 15.9 43 8.6 NNW 15 24 8 13 1012.6 1012.4 0.0
02/07:00pm 30.1 28.8 16.9 45 8.3 NNW 19 26 10 14 1012.0 1011.8 0.0
02/06:30pm 34.2 32.9 11.4 25 13.4 NW 9 13 5 7 1011.2 1011.0 0.0
02/06:00pm 35.6 34.1 9.2 20 15.1 NE 7 11 4 6 1010.9 1010.7 0.0
02/05:30pm 35.7 33.7 8.5 19 15.4 NNE 9 17 5 9 1010.7 1010.5 0.0
02/05:00pm 36.0 33.2 8.7 19 15.6 NE 13 19 7 10 1010.5 1010.3 0.0
02/04:30pm 36.0 32.3 8.0 18 15.8 ENE 17 26 9 14 1010.6 1010.4 0.0
02/04:00pm 36.2 33.9 8.9 19 15.6 ESE 11 20 6 11 1010.6 1010.4 0.0
02/03:30pm 36.1 34.1 8.8 19 15.6 W 9 19 5 10 1010.8 1010.6 0.0
02/03:00pm 35.9 32.2 9.4 20 15.3 NNE 19 30 10 16 1011.2 1011.0 0.0
02/02:30pm 35.4 32.5 9.7 21 14.8 NNE 15 24 8 13 1011.8 1011.6 0.0
02/02:00pm 35.3 32.6 8.9 20 15.0 ENE 13 20 7 11 1012.3 1012.1 0.0
02/01:30pm 34.5 35.2 12.2 26 13.3 CALM 0 0 0 0 1012.9 1012.7 0.0
02/01:00pm 34.9 35.9 13.1 27 13.2 CALM 0 0 0 0 1013.6 1013.4 0.0
02/12:30pm 33.6 34.4 12.6 28 12.6 CALM 0 0 0 0 1014.3 1014.1 0.0
02/12:00pm 32.8 34.0 13.9 31 11.5 CALM 0 0 0 0 1015.0 1014.8 0.0
02/11:30am 31.8 33.1 14.0 34 10.8 CALM 0 0 0 0 1015.6 1015.4 0.0
02/11:00am 31.2 32.4 13.9 35 10.5 CALM 0 0 0 0 1016.1 1015.9 0.0
02/10:30am 30.5 32.0 14.6 38 9.7 CALM 0 0 0 0 1016.5 1016.3 0.0
02/10:00am 29.8 32.2 16.9 45 8.1 CALM 0 0 0 0 1016.7 1016.5 0.0
02/09:30am 28.5 30.0 16.7 48 7.4 SW 4 11 2 6 1016.7 1016.5 0.0
02/09:00am 27.4 29.3 17.6 55 6.2 S 4 7 2 4 1016.6 1016.4 0.0
02/08:30am 26.0 27.8 18.7 64 4.7 ENE 7 9 4 5 1016.4 1016.2 0.0
02/08:00am 23.5 24.5 17.7 70 3.6 E 9 13 5 7 1016.2 1016.0 0.0
02/07:30am 21.7 23.9 16.4 72 3.2 CALM 0 0 0 0 1015.8 1015.6 0.0
02/07:00am 20.6 22.8 16.4 77 2.5 CALM 0 0 0 0 1015.5 1015.3 0.0
02/06:30am 20.4 22.4 16.0 76 2.6 CALM 0 0 0 0 1015.1 1014.9 0.0
02/06:00am 20.7 22.9 16.5 77 2.5 CALM 0 0 0 0 1014.7 1014.5 0.0
02/05:30am 21.3 23.6 16.7 75 2.8 CALM 0 0 0 0 1014.4 1014.2 0.0
02/05:00am 21.3 23.3 16.0 72 3.2 CALM 0 0 0 0 1014.5 1014.3 0.0
02/04:30am 21.7 22.5 16.4 72 3.2 ESE 7 9 4 5 1014.6 1014.4 0.0
02/04:00am 22.0 23.1 16.5 71 3.3 E 6 7 3 4 1014.7 1014.5 0.0
02/03:30am 22.6 23.8 16.9 70 3.5 E 6 7 3 4 1014.7 1014.5 0.0
02/03:00am 22.6 24.7 16.2 67 3.9 CALM 0 0 0 0 1014.7 1014.5 0.0
02/02:30am 23.3 24.8 16.6 66 4.1 NNE 4 9 2 5 1014.6 1014.4 0.0
02/02:00am 23.2 25.4 16.5 66 4.1 CALM 0 0 0 0 1014.7 1014.5 0.0
02/01:30am 23.3 25.5 16.4 65 4.2 CALM 0 0 0 0 1014.8 1014.6 0.0
02/01:00am 24.5 26.0 16.7 61 4.8 NW 4 7 2 4 1015.1 1014.9 0.0
02/12:30am 24.9 25.7 16.3 59 5.3 WNW 7 9 4 5 1015.1 1014.9 0.0
02/12:00am 25.0 25.6 16.7 60 5.1 WNW 9 11 5 6 1015.2 1015.0 0.0
 
Date/Time
CST
Temp
°C
App
Temp
°C
Dew
Point
Rel
Hum
%
Delta-T
°C
Wind Press
QNH
hPa
Press
MSL
hPa
Rain
since 9 am
mm
Dir
 
Spd
km/h
Gust
km/h
Spd
kts
Gust
kts
01/11:30pm 25.6 25.9 15.9 55 5.9 WNW 9 11 5 6 1015.1 1014.9 0.0
01/11:00pm 25.9 26.0 15.6 53 6.3 NW 9 13 5 7 1014.7 1014.5 0.0
01/10:30pm 26.2 26.8 16.7 56 5.9 NW 9 13 5 7 1014.3 1014.1 0.0
01/10:00pm 26.5 27.6 18.1 60 5.3 NNW 9 17 5 9 1013.9 1013.7 0.0
01/09:30pm 26.9 27.5 18.5 60 5.4 NNW 13 17 7 9 1013.8 1013.6 0.0
01/09:00pm 27.7 28.6 17.5 53 6.4 N 9 15 5 8 1013.2 1013.0 0.0
01/08:30pm 28.4 28.2 16.7 49 7.3 NNW 13 17 7 9 1012.6 1012.4 0.0

Other Formats:

Comma delimited format used in spreadsheet applications
http://www.bom.gov.au/fwo/IDD60801/IDD60801.94137.axf

JavaScript Object Notation format (JSON) in row-major order
http://www.bom.gov.au/fwo/IDD60801/IDD60801.94137.json